Time;durP1;ratioP1;P1;durP2;ratioP2;P2;SDS_P1;SDS_P2;PMS_P1;PMS_P2;Temp;Humidity;BMP_temperature;BMP_pressure;BME280_temperature;BME280_humidity;BME280_pressure;Samples;Min_cycle;Max_cycle;Signal;HPM_P1;HPM_P2
2021/09/09 00:00:01;;;;;;;17.57;11.78;;;;;;;9.76;100.00;101935.37;1793776;79;21515;-89
2021/09/09 00:02:28;;;;;;;18.17;11.53;;;;;;;9.73;100.00;101937.30;1766772;80;21060;-88
2021/09/09 00:04:55;;;;;;;22.15;11.80;;;;;;;9.68;100.00;101936.70;1766824;80;21072;-85
2021/09/09 00:07:23;;;;;;;21.12;12.15;;;;;;;9.66;100.00;101935.45;1793637;78;20921;-88
2021/09/09 00:09:50;;;;;;;18.67;13.03;;;;;;;9.65;100.00;101939.00;1793701;78;21044;-89
2021/09/09 00:12:17;;;;;;;21.48;14.70;;;;;;;9.63;100.00;101944.73;1793949;80;21032;-86
2021/09/09 00:14:47;;;;;;;22.60;14.68;;;;;;;9.59;100.00;101948.38;1793618;80;21531;-86
2021/09/09 00:17:14;;;;;;;36.28;15.15;;;;;;;9.52;100.00;101945.70;1793531;78;20917;-87
2021/09/09 00:19:42;;;;;;;36.15;15.98;;;;;;;9.51;100.00;101942.72;1793616;78;20941;-88
2021/09/09 00:22:10;;;;;;;27.95;14.07;;;;;;;9.53;100.00;101946.95;1766835;80;21024;-88
2021/09/09 00:24:37;;;;;;;27.60;15.90;;;;;;;9.59;100.00;101943.18;1793641;78;21119;-90
2021/09/09 00:27:04;;;;;;;25.08;15.60;;;;;;;9.66;100.00;101948.45;1789133;77;21075;-86
2021/09/09 00:29:32;;;;;;;31.27;16.67;;;;;;;9.69;100.00;101943.11;1789671;77;20918;-90
2021/09/09 00:32:00;;;;;;;28.07;18.57;;;;;;;9.69;100.00;101948.31;1789849;77;20998;-86
2021/09/09 00:34:28;;;;;;;29.25;18.73;;;;;;;9.69;100.00;101953.52;1789994;78;21031;-86
2021/09/09 00:36:56;;;;;;;27.67;16.75;;;;;;;9.67;100.00;101952.74;1817469;77;20985;-86
2021/09/09 00:39:23;;;;;;;27.37;16.30;;;;;;;9.62;100.00;101950.84;1789950;77;20993;-90
2021/09/09 00:41:53;;;;;;;34.63;15.13;;;;;;;9.55;100.00;101950.30;1789516;77;21018;-87
2021/09/09 00:44:25;;;;;;;33.33;16.65;;;;;;;9.49;100.00;101949.78;1817477;77;21544;-87
2021/09/09 00:47:06;;;;;;;25.70;16.40;;;;;;;9.42;100.00;101948.75;1789360;77;21459;-87
2021/09/09 00:49:36;;;;;;;31.65;17.87;;;;;;;9.39;100.00;101943.73;1789980;77;20973;-87
2021/09/09 00:52:04;;;;;;;31.97;18.85;;;;;;;9.38;100.00;101939.88;1789837;79;21900;-89
2021/09/09 00:54:32;;;;;;;27.65;18.17;;;;;;;9.37;100.00;101940.82;1789858;78;20961;-87
2021/09/09 00:57:00;;;;;;;30.95;18.98;;;;;;;9.37;100.00;101940.35;1789692;77;21522;-88
2021/09/09 00:59:27;;;;;;;31.97;18.82;;;;;;;9.40;100.00;101939.35;1817723;77;20992;-85
2021/09/09 01:01:55;;;;;;;36.00;19.20;;;;;;;9.41;100.00;101942.34;1790468;77;21052;-89
2021/09/09 01:04:21;;;;;;;34.20;19.25;;;;;;;9.42;100.00;101948.75;1800723;77;21621;-88
2021/09/09 01:06:49;;;;;;;31.70;19.70;;;;;;;9.43;100.00;101942.64;1826385;77;21072;-89
2021/09/09 01:09:16;;;;;;;35.30;18.62;;;;;;;9.42;100.00;101947.92;1800862;78;21102;-85
2021/09/09 01:11:44;;;;;;;34.30;17.40;;;;;;;9.40;100.00;101947.16;1800824;78;21385;-86
2021/09/09 01:14:16;;;;;;;26.37;16.25;;;;;;;9.39;100.00;101952.83;1826447;77;21028;-87
2021/09/09 01:16:47;;;;;;;21.30;15.28;;;;;;;9.39;100.00;101950.22;1826425;77;20914;-88
2021/09/09 01:19:16;;;;;;;22.20;15.20;;;;;;;9.35;100.00;101951.27;1758687;80;21169;-88
2021/09/09 01:21:46;;;;;;;23.50;14.23;;;;;;;9.31;100.00;101942.78;1800534;77;20960;-87
2021/09/09 01:24:19;;;;;;;25.02;13.65;;;;;;;9.27;100.00;101942.56;1753260;81;21657;-90
2021/09/09 01:27:07;;;;;;;26.35;14.43;;;;;;;9.21;100.00;101940.71;1759046;81;21068;-87
2021/09/09 01:29:40;;;;;;;25.85;13.58;;;;;;;9.17;100.00;101936.12;1758966;81;21034;-88
2021/09/09 01:32:08;;;;;;;18.67;13.00;;;;;;;9.14;100.00;101933.22;1733620;81;21026;-86
2021/09/09 01:34:36;;;;;;;19.25;13.25;;;;;;;9.08;100.00;101930.92;1759088;81;21007;-86
2021/09/09 01:37:05;;;;;;;18.17;12.82;;;;;;;9.01;100.00;101930.83;1733137;81;21026;-90
2021/09/09 01:39:32;;;;;;;17.62;13.10;;;;;;;8.99;100.00;101933.95;1733070;81;21021;-88
2021/09/09 01:41:59;;;;;;;19.10;12.98;;;;;;;8.94;100.00;101922.47;1759059;81;21136;-87
2021/09/09 01:44:29;;;;;;;19.10;13.00;;;;;;;8.89;100.00;101924.89;1733007;81;21053;-85
2021/09/09 01:46:57;;;;;;;20.60;14.15;;;;;;;8.84;100.00;101917.32;1733412;81;21089;-87
2021/09/09 01:49:25;;;;;;;25.40;13.08;;;;;;;8.80;100.00;101920.98;1733185;81;21525;-89
2021/09/09 01:51:54;;;;;;;19.62;13.28;;;;;;;8.75;100.00;101919.91;1758058;81;20938;-87
2021/09/09 01:54:22;;;;;;;20.30;12.45;;;;;;;8.72;100.00;101921.33;1732966;81;21086;-85
2021/09/09 01:56:50;;;;;;;19.37;12.23;;;;;;;8.71;100.00;101917.05;1733544;81;21014;-88
2021/09/09 01:59:17;;;;;;;18.12;12.73;;;;;;;8.71;100.00;101918.34;1737942;80;21553;-87
2021/09/09 02:01:44;;;;;;;18.92;12.37;;;;;;;8.70;100.00;101917.13;1759196;80;21575;-88
2021/09/09 02:04:11;;;;;;;17.65;12.63;;;;;;;8.67;100.00;101912.45;1767538;79;21588;-86
2021/09/09 02:06:38;;;;;;;20.32;12.60;;;;;;;8.63;100.00;101912.22;1768555;79;21081;-90
2021/09/09 02:09:05;;;;;;;22.80;12.88;;;;;;;8.61;100.00;101911.92;1799899;79;21076;-86
2021/09/09 02:11:32;;;;;;;28.62;12.70;;;;;;;8.60;100.00;101909.75;1768471;79;21021;-85
2021/09/09 02:13:59;;;;;;;20.12;11.97;;;;;;;8.60;100.00;101911.05;1755057;79;21067;-88
2021/09/09 02:16:28;;;;;;;18.07;12.35;;;;;;;8.62;100.00;101913.57;1822099;77;21051;-88
2021/09/09 02:18:57;;;;;;;18.50;12.28;;;;;;;8.63;100.00;101913.52;1762119;80;21099;-87
2021/09/09 02:21:26;;;;;;;19.65;12.30;;;;;;;8.67;100.00;101914.22;1822866;78;21056;-88
2021/09/09 02:23:53;;;;;;;18.07;10.85;;;;;;;8.68;100.00;101908.12;1765396;80;21607;-88
2021/09/09 02:26:20;;;;;;;23.62;11.35;;;;;;;8.70;100.00;101908.04;1793309;78;20985;-85
2021/09/09 02:28:48;;;;;;;30.05;12.53;;;;;;;8.71;100.00;101907.13;1793053;78;21495;-89
2021/09/09 02:31:15;;;;;;;26.90;11.38;;;;;;;8.76;100.00;101910.34;1806746;78;21072;-86
2021/09/09 02:33:43;;;;;;;64.42;13.32;;;;;;;8.80;100.00;101907.53;1823417;78;21068;-87
2021/09/09 02:36:10;;;;;;;36.33;12.37;;;;;;;8.86;100.00;101915.94;1776830;80;21021;-86
2021/09/09 02:38:39;;;;;;;21.65;12.43;;;;;;;8.94;100.00;101915.12;1823509;77;20957;-89
2021/09/09 02:41:06;;;;;;;20.40;12.07;;;;;;;9.04;100.00;101915.55;1778245;80;21089;-85
2021/09/09 02:43:34;;;;;;;34.80;13.40;;;;;;;9.11;100.00;101910.44;1800419;77;21029;-84
2021/09/09 02:46:01;;;;;;;36.53;13.40;;;;;;;9.16;100.00;101916.23;1786747;78;21043;-87
2021/09/09 02:48:29;;;;;;;36.93;12.60;;;;;;;9.14;100.00;101919.36;1793047;78;20918;-84
2021/09/09 02:50:56;;;;;;;19.70;11.38;;;;;;;9.06;100.00;101916.29;1793004;78;20974;-88
2021/09/09 02:53:24;;;;;;;16.23;10.50;;;;;;;8.96;100.00;101915.89;1793095;78;21005;-84
2021/09/09 02:55:50;;;;;;;15.20;10.25;;;;;;;8.86;100.00;101918.09;1793352;78;20913;-89
2021/09/09 02:58:19;;;;;;;15.00;9.75;;;;;;;8.74;100.00;101918.66;1823178;78;21496;-88
2021/09/09 03:00:46;;;;;;;26.87;10.00;;;;;;;8.61;100.00;101922.30;1820245;78;21052;-85
2021/09/09 03:03:13;;;;;;;18.42;10.65;;;;;;;8.45;100.00;101915.15;1795129;78;21084;-91
2021/09/09 03:05:39;;;;;;;21.33;10.70;;;;;;;8.34;100.00;101914.81;1798540;78;21029;-87
2021/09/09 03:08:06;;;;;;;41.37;12.53;;;;;;;8.21;100.00;101920.53;1798175;78;21010;-87
2021/09/09 03:10:35;;;;;;;38.45;11.20;;;;;;;8.11;100.00;101918.41;1825920;78;21045;-88
2021/09/09 03:13:02;;;;;;;22.13;10.15;;;;;;;8.02;100.00;101921.80;1798038;78;20983;-85
2021/09/09 03:15:30;;;;;;;17.07;9.78;;;;;;;8.00;100.00;101922.34;1821364;78;21025;-87
2021/09/09 03:17:57;;;;;;;16.10;9.43;;;;;;;8.01;100.00;101920.58;1798347;78;21041;-84
2021/09/09 03:20:25;;;;;;;14.13;10.08;;;;;;;8.01;100.00;101928.36;1798322;77;21079;-87
2021/09/09 03:22:53;;;;;;;21.42;10.55;;;;;;;8.05;100.00;101926.04;1825904;77;20984;-89
2021/09/09 03:25:21;;;;;;;15.98;9.90;;;;;;;8.05;100.00;101921.67;1798520;77;20987;-87
2021/09/09 03:27:48;;;;;;;15.30;10.18;;;;;;;8.00;100.00;101930.56;1794990;78;21460;-84
2021/09/09 03:30:15;;;;;;;18.02;10.72;;;;;;;7.94;100.00;101932.13;1767819;78;20898;-87
2021/09/09 03:32:42;;;;;;;14.20;10.50;;;;;;;7.94;100.00;101934.73;1795825;78;21059;-87
2021/09/09 03:35:09;;;;;;;17.00;10.30;;;;;;;7.96;100.00;101934.22;1793131;79;21046;-86
2021/09/09 03:37:37;;;;;;;16.40;10.05;;;;;;;7.94;100.00;101932.96;1766739;78;21008;-87
2021/09/09 03:40:05;;;;;;;14.15;9.55;;;;;;;7.94;100.00;101939.91;1793741;80;20934;-89
2021/09/09 03:42:31;;;;;;;13.18;10.15;;;;;;;7.95;100.00;101942.90;1767014;80;21073;-89
2021/09/09 03:45:00;;;;;;;13.48;9.98;;;;;;;7.95;100.00;101948.91;1797215;79;21063;-89
2021/09/09 03:47:27;;;;;;;12.95;9.93;;;;;;;7.93;100.00;101947.30;1818137;77;21064;-87
2021/09/09 03:49:54;;;;;;;14.28;9.93;;;;;;;7.93;100.00;101944.70;1798635;78;21053;-86
2021/09/09 03:52:21;;;;;;;17.90;9.58;;;;;;;7.90;100.00;101941.80;1760868;80;21405;-86
2021/09/09 03:54:49;;;;;;;20.05;11.12;;;;;;;7.84;100.00;101954.56;1786162;79;21720;-87
2021/09/09 03:57:16;;;;;;;16.30;10.08;;;;;;;7.82;100.00;101953.78;1825808;77;21516;-89
2021/09/09 03:59:43;;;;;;;17.80;9.83;;;;;;;7.82;100.00;101956.84;1798499;78;21026;-89
2021/09/09 04:02:10;;;;;;;13.85;9.50;;;;;;;7.83;100.00;101955.94;1760731;80;21983;-88
2021/09/09 04:04:37;;;;;;;15.25;10.45;;;;;;;7.85;100.00;101950.23;1783057;79;21074;-89
2021/09/09 04:07:04;;;;;;;15.95;10.28;;;;;;;7.85;100.00;101949.77;1782540;79;21051;-90
2021/09/09 04:12:16;;;;;;;18.60;10.65;;;;;;;7.71;100.00;101946.45;1870295;76;22658;-88
2021/09/09 04:14:45;;;;;;;16.40;10.58;;;;;;;7.62;100.00;101947.30;1826520;77;20915;-87
2021/09/09 04:17:14;;;;;;;13.43;10.53;;;;;;;7.56;100.00;101946.66;1826384;77;21060;-87
2021/09/09 04:19:41;;;;;;;14.73;9.98;;;;;;;7.54;100.00;101947.16;1805616;78;20961;-90
2021/09/09 04:22:11;;;;;;;20.50;10.23;;;;;;;7.53;100.00;101944.64;1826183;77;20958;-88
2021/09/09 04:24:38;;;;;;;16.40;10.18;;;;;;;7.54;100.00;101945.87;1805745;78;20977;-89
2021/09/09 04:27:05;;;;;;;14.98;10.38;;;;;;;7.55;100.00;101942.37;1805761;78;20930;-91
2021/09/09 04:29:32;;;;;;;16.42;10.43;;;;;;;7.56;100.00;101942.77;1826202;78;21135;-90
2021/09/09 04:31:59;;;;;;;13.83;10.70;;;;;;;7.64;100.00;101950.21;1805649;78;21004;-91
2021/09/09 04:34:26;;;;;;;15.32;11.15;;;;;;;7.74;100.00;101945.47;1805576;77;20922;-88
2021/09/09 04:36:55;;;;;;;15.23;11.48;;;;;;;7.81;100.00;101948.66;1826053;77;21010;-90
2021/09/09 04:39:22;;;;;;;16.27;12.15;;;;;;;7.82;100.00;101943.41;1826244;77;21026;-90
2021/09/09 04:41:49;;;;;;;16.27;11.60;;;;;;;7.86;100.00;101942.38;1805976;78;21059;-88
2021/09/09 04:44:18;;;;;;;18.45;12.18;;;;;;;7.92;100.00;101945.17;1805533;77;21025;-88
2021/09/09 04:46:45;;;;;;;14.73;11.33;;;;;;;7.99;100.00;101949.63;1805594;77;21033;-89
2021/09/09 04:49:15;;;;;;;17.52;11.43;;;;;;;8.09;100.00;101942.31;1805949;78;20958;-89
2021/09/09 04:51:42;;;;;;;17.70;12.05;;;;;;;8.19;100.00;101943.14;1806311;78;21084;-89
2021/09/09 04:54:09;;;;;;;16.82;12.20;;;;;;;8.32;100.00;101941.28;1805572;77;21570;-89
2021/09/09 04:56:37;;;;;;;17.35;11.95;;;;;;;8.45;100.00;101952.80;1805555;78;21397;-90
2021/09/09 04:59:03;;;;;;;17.92;12.82;;;;;;;8.56;100.00;101947.17;1805591;78;20975;-89
2021/09/09 05:01:32;;;;;;;22.37;12.82;;;;;;;8.71;100.00;101953.88;1826280;77;21024;-92
2021/09/09 05:03:59;;;;;;;17.32;12.33;;;;;;;8.82;100.00;101951.17;1805551;78;21081;-89
2021/09/09 05:06:27;;;;;;;17.05;13.48;;;;;;;8.97;100.00;101952.19;1805821;77;21156;-89
2021/09/09 05:08:54;;;;;;;19.52;13.10;;;;;;;9.11;100.00;101946.34;1805540;78;20922;-91
2021/09/09 05:11:22;;;;;;;21.52;13.80;;;;;;;9.26;100.00;101942.62;1809070;77;21056;-89
2021/09/09 05:13:49;;;;;;;19.62;13.48;;;;;;;9.41;100.00;101944.94;1813268;78;21002;-91
2021/09/09 05:16:16;;;;;;;16.73;12.80;;;;;;;9.53;100.00;101937.85;1813418;78;20986;-91
2021/09/09 05:18:44;;;;;;;14.10;12.58;;;;;;;9.67;100.00;101931.94;1813054;77;21193;-90
2021/09/09 05:21:11;;;;;;;21.68;14.40;;;;;;;9.81;100.00;101925.22;1813487;77;21391;-91
2021/09/09 05:23:38;;;;;;;20.32;14.33;;;;;;;9.95;100.00;101927.95;1812631;78;21689;-90
2021/09/09 05:26:18;;;;;;;19.00;14.28;;;;;;;10.10;100.00;101927.59;1812968;78;21730;-91
2021/09/09 05:28:47;;;;;;;18.52;13.98;;;;;;;10.24;100.00;101922.97;1829145;77;21017;-90
2021/09/09 05:31:14;;;;;;;17.73;13.75;;;;;;;10.40;100.00;101917.83;1813154;77;21966;-90
2021/09/09 05:33:41;;;;;;;15.13;12.90;;;;;;;10.54;100.00;101917.06;1812682;78;21095;-90
2021/09/09 05:36:09;;;;;;;14.98;12.15;;;;;;;10.68;100.00;101921.09;1813168;78;21037;-88
2021/09/09 05:38:37;;;;;;;19.05;12.23;;;;;;;10.82;100.00;101921.60;1829207;77;20989;-91
2021/09/09 05:41:06;;;;;;;20.68;12.53;;;;;;;10.95;100.00;101919.63;1812766;78;21041;-89
2021/09/09 05:43:33;;;;;;;21.10;12.95;;;;;;;11.08;100.00;101917.18;1812503;77;21199;-85
2021/09/09 05:46:00;;;;;;;20.68;13.55;;;;;;;11.20;100.00;101920.38;1812575;78;21080;-86
2021/09/09 05:48:27;;;;;;;23.80;13.83;;;;;;;11.32;100.00;101918.84;1812383;77;21012;-87
2021/09/09 05:50:54;;;;;;;17.65;12.65;;;;;;;11.45;100.00;101912.45;1786196;78;20991;-93
2021/09/09 05:53:21;;;;;;;18.98;13.72;;;;;;;11.61;100.00;101917.15;1828974;77;21080;-89
2021/09/09 05:55:48;;;;;;;22.40;14.95;;;;;;;11.78;100.00;101907.48;1812739;78;21030;-89
2021/09/09 05:58:16;;;;;;;20.85;14.85;;;;;;;11.93;100.00;101906.56;1829047;77;20871;-89
2021/09/09 06:00:45;;;;;;;21.65;14.53;;;;;;;12.09;100.00;101914.34;1829266;77;20843;-89
2021/09/09 06:03:14;;;;;;;22.90;14.90;;;;;;;12.25;100.00;101915.53;1829180;77;21505;-90
2021/09/09 06:05:41;;;;;;;21.97;14.50;;;;;;;12.40;100.00;101912.91;1812524;77;21085;-91
2021/09/09 06:08:08;;;;;;;18.95;14.33;;;;;;;12.56;100.00;101915.41;1812436;78;21858;-91
2021/09/09 06:10:36;;;;;;;22.05;15.05;;;;;;;12.72;100.00;101911.34;1811986;78;20934;-91
2021/09/09 06:13:03;;;;;;;22.00;15.63;;;;;;;12.89;100.00;101912.90;1825524;77;21021;-92
2021/09/09 06:15:31;;;;;;;19.17;14.60;;;;;;;13.05;100.00;101908.81;1825705;77;21768;-91
2021/09/09 06:17:57;;;;;;;18.40;13.98;;;;;;;13.20;100.00;101905.19;1825967;78;21084;-90
2021/09/09 06:20:24;;;;;;;16.23;13.38;;;;;;;13.38;100.00;101906.22;1805278;78;21463;-91
2021/09/09 06:22:51;;;;;;;18.95;14.23;;;;;;;13.55;100.00;101900.73;1805014;78;21012;-91
2021/09/09 06:25:19;;;;;;;17.55;13.78;;;;;;;13.72;100.00;101897.45;1813396;77;21028;-89
2021/09/09 06:27:47;;;;;;;20.32;14.03;;;;;;;13.87;100.00;101900.77;1826113;77;21013;-88
2021/09/09 06:30:15;;;;;;;18.27;13.20;;;;;;;14.01;100.00;101901.99;1858815;77;21017;-89
2021/09/09 06:32:48;;;;;;;18.57;13.38;;;;;;;14.16;100.00;101898.76;1853560;77;21516;-90
2021/09/09 06:35:35;;;;;;;;;;;;;;;;;;;;;
2021/09/09 06:38:02;;;;;;;;;;;;;;;;;;;;;
2021/09/09 06:40:29;;;;;;;17.07;11.95;;;;;;;14.67;100.00;101895.19;1611756;84;21070;-91
2021/09/09 06:43:09;;;;;;;;;;;;;;;;;;;;;
2021/09/09 06:45:35;;;;;;;12.70;10.38;;;;;;;15.02;100.00;101896.66;1621466;88;21105;-92
2021/09/09 06:48:06;;;;;;;14.95;10.75;;;;;;;15.17;100.00;101899.45;1608756;88;21047;-89
2021/09/09 06:50:49;;;;;;;;;;;;;;;;;;;;;
2021/09/09 06:53:27;;;;;;;;;;;;;;;;;;;;;
2021/09/09 06:55:57;;;;;;;;;;;;;;;;;;;;;
2021/09/09 06:58:33;;;;;;;;;;;;;;;;;;;;;
2021/09/09 07:00:57;;;;;;;13.65;9.58;;;;;;;15.96;100.00;101901.42;1290044;105;21208;-91
2021/09/09 07:06:16;;;;;;;14.73;10.23;;;;;;;16.32;100.00;101896.84;1375776;102;21183;-90
2021/09/09 07:08:52;;;;;;;11.73;8.78;;;;;;;16.51;100.00;101896.70;1407186;99;21163;-91
2021/09/09 07:11:29;;;;;;;;;;;;;;;;;;;;;
2021/09/09 07:14:00;;;;;;;10.00;8.48;;;;;;;16.84;99.06;101898.37;1491854;94;21162;-92
2021/09/09 07:16:24;;;;;;;13.72;9.23;;;;;;;17.00;89.49;101901.09;1514778;94;21750;-89
2021/09/09 07:19:03;;;;;;;11.33;8.03;;;;;;;17.27;80.89;101899.28;1487493;95;21146;-90
2021/09/09 07:21:29;;;;;;;11.73;7.50;;;;;;;17.27;80.89;101899.28;1447590;97;21773;-90
2021/09/09 07:24:12;;;;;;;;;;;;;;;;;;;;;
2021/09/09 07:26:37;;;;;;;7.85;6.30;;;;;;;17.52;72.94;101895.91;1390722;101;21198;-92
2021/09/09 07:29:17;;;;;;;;;;;;;;;;;;;;;
2021/09/09 07:31:52;;;;;;;;;;;;;;;;;;;;;
2021/09/09 07:34:26;;;;;;;;;;;;;;;;;;;;;
2021/09/09 07:37:07;;;;;;;;;;;;;;;;;;;;;
2021/09/09 07:39:51;;;;;;;;;;;;;;;;;;;;;
2021/09/09 07:42:30;;;;;;;11.28;5.55;;;;;;;18.43;53.86;101882.81;1325798;106;21883;-90
2021/09/09 07:46:26;;;;;;;8.45;6.97;;;;;;;18.58;52.75;101879.81;1331188;106;21209;-90
2021/09/09 07:50:10;;;;;;;8.08;6.30;;;;;;;18.71;55.24;101879.52;1311077;107;21282;-90
2021/09/09 07:53:00;;;;;;;;;;;;;;;;;;;;;
2021/09/09 07:55:38;;;;;;;8.13;5.72;;;;;;;19.02;52.38;101878.11;1310025;101;21177;-90
2021/09/09 07:58:05;;;;;;;7.65;5.62;;;;;;;19.12;50.83;101874.13;1446398;98;21185;-89
2021/09/09 08:00:44;;;;;;;;;;;;;;;;;;;;;
2021/09/09 08:03:29;;;;;;;;;;;;;;;;;;;;;
2021/09/09 08:05:59;;;;;;;;;;;;;;;;;;;;;
2021/09/09 08:08:22;;;;;;;10.53;6.20;;;;;;;19.53;47.17;101864.17;1459525;97;21245;-90
2021/09/09 08:10:54;;;;;;;9.88;6.62;;;;;;;19.66;47.69;101868.63;1560328;88;21072;-92
2021/09/09 08:13:37;;;;;;;;;;;;;;;;;;;;;
2021/09/09 08:16:05;;;;;;;;;;;;;;;;;;;;;
2021/09/09 08:18:30;;;;;;;6.40;5.50;;;;;;;20.01;44.94;101860.99;1538539;92;21183;-92
2021/09/09 08:21:15;;;;;;;;;;;;;;;;;;;;;
2021/09/09 08:23:44;;;;;;;9.58;6.85;;;;;;;20.16;44.20;101858.19;1376387;102;21766;-90
2021/09/09 08:26:33;;;;;;;6.37;4.87;;;;;;;20.26;44.13;101854.66;1384224;103;21857;-93
2021/09/09 08:32:00;;;;;;;;;;;;;;;;;;;;;
2021/09/09 08:34:43;;;;;;;;;;;;;;;;;;;;;
2021/09/09 08:37:20;;;;;;;;;;;;;;;;;;;;;
2021/09/09 08:40:05;;;;;;;;;;;;;;;;;;;;;
2021/09/09 08:42:44;;;;;;;;;;;;;;;;;;;;;
2021/09/09 08:45:30;;;;;;;;;;;;;;;;;;;;;
2021/09/09 08:50:49;;;;;;;5.78;4.17;;;;;;;20.77;37.72;101837.79;1259195;109;21100;-91
2021/09/09 08:53:45;;;;;;;;;;;;;;;;;;;;;
2021/09/09 08:56:18;;;;;;;;;;;;;;;;;;;;;
2021/09/09 08:58:56;;;;;;;;;;;;;;;;;;;;;
2021/09/09 09:01:26;;;;;;;5.33;4.50;;;;;;;21.08;37.67;101829.41;1325919;106;21209;-90
2021/09/09 09:04:19;;;;;;;5.50;4.42;;;;;;;21.10;37.40;101828.30;1365162;100;21800;-90
2021/09/09 09:07:06;;;;;;;;;;;;;;;;;;;;;
2021/09/09 09:12:29;;;;;;;;;;;;;;;;;;;;;
2021/09/09 09:15:52;;;;;;;6.97;4.50;;;;;;;21.31;35.39;101811.70;1314692;107;21134;-91
2021/09/09 09:18:23;;;;;;;;;;;;;;;;;;;;;
2021/09/09 09:21:30;;;;;;;;;;;;;;;;;;;;;
2021/09/09 09:24:42;;;;;;;;;;;;;;;;;;;;;
2021/09/09 09:27:35;;;;;;;;;;;;;;;;;;;;;
2021/09/09 09:30:20;;;;;;;;;;;;;;;;;;;;;
2021/09/09 09:32:58;;;;;;;;;;;;;;;;;;;;;
2021/09/09 09:35:34;;;;;;;;;;;;;;;;;;;;;
2021/09/09 09:38:15;;;;;;;5.65;4.00;;;;;;;22.29;36.35;101787.34;1281994;111;21736;-90
2021/09/09 09:40:55;;;;;;;;;;;;;;;;;;;;;
2021/09/09 09:43:33;;;;;;;;;;;;;;;;;;;;;
2021/09/09 09:46:06;;;;;;;6.58;4.20;;;;;;;22.41;36.76;101776.41;1226363;115;21342;-92
2021/09/09 09:49:01;;;;;;;7.25;4.87;;;;;;;22.51;36.43;101781.06;1225125;115;21760;-94
2021/09/09 09:51:54;;;;;;;;;;;;;;;;;;;;;
2021/09/09 09:54:24;;;;;;;5.33;4.22;;;;;;;22.69;35.95;101776.90;1273338;98;21288;-92
2021/09/09 09:57:00;;;;;;;5.85;4.62;;;;;;;22.75;35.12;101771.42;1490336;94;21174;-88
2021/09/09 10:18:43;;;;;;;5.50;4.10;;;;;;;22.81;36.23;101754.33;1372574;103;21214;-96
2021/09/09 10:22:11;;;;;;;5.85;4.47;;;;;;;22.89;33.73;101756.13;1468664;93;21788;-89
2021/09/09 10:25:33;;;;;;;5.22;4.62;;;;;;;22.91;34.91;101751.99;1508842;93;21232;-90
2021/09/09 10:28:13;;;;;;;;;;;;;;;;;;;;;
2021/09/09 10:33:31;;;;;;;9.88;4.53;;;;;;;22.75;33.16;101734.25;1692481;80;21033;-90
2021/09/09 10:36:01;;;;;;;5.72;4.78;;;;;;;22.76;34.92;101727.95;1758534;80;21023;-90
2021/09/09 10:38:32;;;;;;;9.20;5.05;;;;;;;22.84;34.91;101733.25;1758083;80;21017;-90
2021/09/09 10:41:04;;;;;;;8.83;7.20;;;;;;;22.94;34.24;101735.22;1758324;80;20955;-89
2021/09/09 10:43:41;;;;;;;9.58;6.45;;;;;;;23.00;33.32;101730.55;1758391;80;20984;-91
2021/09/09 10:46:11;;;;;;;11.48;6.95;;;;;;;23.05;33.75;101726.53;1758326;80;21134;-89
2021/09/09 10:48:39;;;;;;;;;;;;;;;23.08;32.76;101727.02;1761351;80;21498;-89
2021/09/09 10:51:17;;;;;;;7.58;5.97;;;;;;;23.08;34.79;101727.53;1734013;80;20410;-90
2021/09/09 10:53:56;;;;;;;10.43;6.78;;;;;;;23.12;34.07;101718.20;1755943;80;21695;-90
2021/09/09 10:56:36;;;;;;;10.85;7.05;;;;;;;23.17;34.45;101718.54;1758470;80;20991;-89
2021/09/09 10:59:21;;;;;;;10.08;7.08;;;;;;;23.13;33.00;101710.09;1766797;80;21089;-90
2021/09/09 11:01:49;;;;;;;9.10;6.95;;;;;;;23.12;33.08;101700.94;1775730;80;20923;-89
2021/09/09 11:04:35;;;;;;;8.93;7.47;;;;;;;23.14;33.39;101694.48;1776059;80;21013;-89
2021/09/09 11:07:09;;;;;;;10.35;6.25;;;;;;;23.19;32.86;101697.98;1795814;78;21612;-89
2021/09/09 11:09:36;;;;;;;10.78;7.15;;;;;;;23.18;33.05;101696.80;1739547;80;20986;-89
2021/09/09 11:12:06;;;;;;;9.78;6.83;;;;;;;23.16;32.71;101687.14;1774944;80;21142;-90
2021/09/09 11:14:35;;;;;;;10.53;8.13;;;;;;;23.22;32.84;101686.17;1750351;80;20994;-89
2021/09/09 11:17:05;;;;;;;10.78;7.25;;;;;;;23.23;31.92;101680.68;1776671;80;21532;-89
2021/09/09 11:19:34;;;;;;;12.68;8.03;;;;;;;23.23;33.02;101679.34;1776113;80;20930;-90
2021/09/09 11:22:05;;;;;;;11.80;8.10;;;;;;;23.18;33.17;101668.91;1775497;80;20946;-90
2021/09/09 11:24:35;;;;;;;9.63;7.60;;;;;;;23.14;33.44;101673.71;1776209;80;21107;-89
2021/09/09 11:27:14;;;;;;;9.65;6.75;;;;;;;23.12;33.71;101668.58;1776057;80;22632;-89
2021/09/09 11:29:41;;;;;;;11.20;8.68;;;;;;;23.10;32.71;101667.11;1747876;80;21052;-89
2021/09/09 11:32:08;;;;;;;12.40;8.68;;;;;;;23.09;32.74;101664.93;1764593;79;21105;-89
2021/09/09 11:34:35;;;;;;;10.25;8.53;;;;;;;23.18;33.45;101658.28;1762505;79;21027;-90
2021/09/09 11:37:04;;;;;;;13.45;8.10;;;;;;;23.20;33.19;101652.30;1758383;80;21773;-90
2021/09/09 11:39:35;;;;;;;12.05;9.30;;;;;;;23.20;32.90;101654.45;1747473;80;21044;-88
2021/09/09 11:42:08;;;;;;;12.37;8.88;;;;;;;23.22;32.87;101649.80;1747511;80;21047;-89
2021/09/09 11:44:39;;;;;;;17.67;8.83;;;;;;;23.30;34.11;101647.09;1746830;80;21151;-89
2021/09/09 11:47:18;;;;;;;13.15;8.33;;;;;;;23.36;34.84;101646.05;1747404;80;21032;-89
2021/09/09 11:49:47;;;;;;;15.35;9.80;;;;;;;23.39;34.35;101641.73;1747386;80;22105;-89
2021/09/09 11:52:16;;;;;;;13.58;9.83;;;;;;;23.39;33.66;101633.28;1780246;80;21039;-90
2021/09/09 11:54:43;;;;;;;14.55;9.20;;;;;;;23.37;32.20;101631.29;1747614;80;21578;-90
2021/09/09 11:57:17;;;;;;;11.05;8.58;;;;;;;23.34;31.41;101629.48;1747449;80;21039;-89
2021/09/09 11:59:51;;;;;;;11.50;9.83;;;;;;;23.33;32.01;101631.81;1747584;80;21043;-90
2021/09/09 12:02:25;;;;;;;13.83;9.40;;;;;;;23.35;34.77;101621.33;1747706;80;22161;-90
2021/09/09 12:04:53;;;;;;;10.82;8.88;;;;;;;23.37;32.42;101623.80;1745745;80;21014;-89
2021/09/09 12:07:29;;;;;;;11.63;9.95;;;;;;;23.37;31.76;101619.81;1741434;81;21490;-89
2021/09/09 12:10:07;;;;;;;12.58;9.83;;;;;;;23.35;31.70;101613.36;1703664;83;21593;-89
2021/09/09 12:12:35;;;;;;;11.38;8.43;;;;;;;23.34;32.28;101608.23;1679989;82;21145;-88
2021/09/09 12:15:19;;;;;;;14.43;10.03;;;;;;;23.38;32.90;101605.53;1710339;83;21581;-90
2021/09/09 12:17:50;;;;;;;12.13;8.45;;;;;;;23.41;33.28;101599.36;1713422;83;21050;-90
2021/09/09 12:20:26;;;;;;;10.35;8.60;;;;;;;23.46;33.56;101592.19;1680691;83;21513;-90
2021/09/09 12:22:59;;;;;;;10.25;8.40;;;;;;;23.49;32.69;101597.16;1713362;83;21101;-89
2021/09/09 12:25:39;;;;;;;14.38;8.98;;;;;;;23.40;30.99;101596.89;1679058;83;21050;-89
2021/09/09 12:28:16;;;;;;;14.95;9.00;;;;;;;23.29;31.63;101589.64;1683522;83;21316;-90
2021/09/09 12:30:57;;;;;;;13.30;9.00;;;;;;;23.23;32.55;101591.68;1709189;83;21094;-89
2021/09/09 12:33:35;;;;;;;9.10;7.83;;;;;;;23.27;33.02;101595.66;1681431;84;21743;-89
2021/09/09 12:36:23;;;;;;;15.35;9.78;;;;;;;23.30;33.16;101583.84;1738514;81;21534;-89
2021/09/09 12:38:58;;;;;;;47.75;10.10;;;;;;;23.25;34.32;101588.84;1739073;81;21066;-89
2021/09/09 12:41:29;;;;;;;10.98;7.95;;;;;;;23.18;33.28;101595.38;1740058;81;21093;-89
2021/09/09 12:44:23;;;;;;;14.18;9.28;;;;;;;23.13;32.78;101589.22;1739752;81;21015;-89
2021/09/09 12:46:53;;;;;;;13.18;8.70;;;;;;;23.11;34.41;101587.75;1763296;80;21080;-89
2021/09/09 12:49:40;;;;;;;13.98;8.90;;;;;;;23.11;33.90;101589.08;1701672;83;21085;-89
2021/09/09 12:52:13;;;;;;;13.53;9.35;;;;;;;23.09;33.31;101583.11;1703861;84;21015;-90
2021/09/09 12:54:47;;;;;;;11.33;8.73;;;;;;;23.04;33.25;101584.11;1739586;81;21180;-89
2021/09/09 12:57:30;;;;;;;17.23;9.35;;;;;;;22.98;34.28;101587.80;1739723;81;20944;-88
2021/09/09 12:59:57;;;;;;;12.98;8.68;;;;;;;22.95;33.80;101578.87;1739084;81;21042;-90
2021/09/09 13:02:25;;;;;;;14.28;9.75;;;;;;;22.92;33.75;101573.90;1701708;83;21055;-88
2021/09/09 13:04:52;;;;;;;15.30;9.40;;;;;;;22.89;34.30;101574.23;1681817;84;20955;-88
2021/09/09 13:07:20;;;;;;;12.90;9.75;;;;;;;22.87;35.32;101569.63;1700153;83;21102;-88
2021/09/09 13:09:48;;;;;;;15.00;9.98;;;;;;;22.87;34.94;101566.97;1681798;84;21007;-89